sensor_id;sensor_type;location;lat;lon;timestamp;temperature;humidity
51035;DHT22;37062;52.546;13.230;2023-03-03T00:01:18;3.10;99.90
51035;DHT22;37062;52.546;13.230;2023-03-03T00:03:46;3.00;99.90
51035;DHT22;37062;52.546;13.230;2023-03-03T00:06:15;2.90;99.90
51035;DHT22;37062;52.546;13.230;2023-03-03T00:08:43;2.90;99.90
51035;DHT22;37062;52.546;13.230;2023-03-03T00:11:13;2.90;99.90
51035;DHT22;37062;52.546;13.230;2023-03-03T00:13:45;2.60;99.90
51035;DHT22;37062;52.546;13.230;2023-03-03T00:16:16;2.70;99.90
51035;DHT22;37062;52.546;13.230;2023-03-03T00:18:48;2.70;99.90
51035;DHT22;37062;52.546;13.230;2023-03-03T00:21:28;2.80;99.90
51035;DHT22;37062;52.546;13.230;2023-03-03T00:24:17;2.80;99.90
51035;DHT22;37062;52.546;13.230;2023-03-03T00:26:49;2.80;99.90
51035;DHT22;37062;52.546;13.230;2023-03-03T00:29:28;2.90;99.90
51035;DHT22;37062;52.546;13.230;2023-03-03T00:32:17;3.10;99.90
51035;DHT22;37062;52.546;13.230;2023-03-03T00:34:48;3.10;99.90
51035;DHT22;37062;52.546;13.230;2023-03-03T00:37:29;3.10;99.90
51035;DHT22;37062;52.546;13.230;2023-03-03T00:40:15;2.90;99.90
51035;DHT22;37062;52.546;13.230;2023-03-03T00:42:51;2.90;99.90
51035;DHT22;37062;52.546;13.230;2023-03-03T00:45:29;2.80;99.90
51035;DHT22;37062;52.546;13.230;2023-03-03T00:47:58;2.80;99.90
51035;DHT22;37062;52.546;13.230;2023-03-03T00:50:40;2.70;99.90
51035;DHT22;37062;52.546;13.230;2023-03-03T00:53:11;2.80;99.90
51035;DHT22;37062;52.546;13.230;2023-03-03T00:55:40;2.80;99.90
51035;DHT22;37062;52.546;13.230;2023-03-03T00:58:10;2.70;99.90
51035;DHT22;37062;52.546;13.230;2023-03-03T01:00:43;2.70;99.90
51035;DHT22;37062;52.546;13.230;2023-03-03T01:03:16;2.70;99.90
51035;DHT22;37062;52.546;13.230;2023-03-03T01:05:45;2.60;99.90
51035;DHT22;37062;52.546;13.230;2023-03-03T01:08:13;2.60;99.90
51035;DHT22;37062;52.546;13.230;2023-03-03T01:10:44;2.70;99.90
51035;DHT22;37062;52.546;13.230;2023-03-03T01:13:14;2.80;99.90
51035;DHT22;37062;52.546;13.230;2023-03-03T01:15:43;2.80;99.90
51035;DHT22;37062;52.546;13.230;2023-03-03T01:18:13;2.80;99.90
51035;DHT22;37062;52.546;13.230;2023-03-03T01:20:41;2.80;99.90
51035;DHT22;37062;52.546;13.230;2023-03-03T01:23:10;2.70;99.90
51035;DHT22;37062;52.546;13.230;2023-03-03T01:25:39;2.60;99.90
51035;DHT22;37062;52.546;13.230;2023-03-03T01:28:07;2.60;99.90
51035;DHT22;37062;52.546;13.230;2023-03-03T01:30:37;2.60;99.90
51035;DHT22;37062;52.546;13.230;2023-03-03T01:33:06;2.60;99.90
51035;DHT22;37062;52.546;13.230;2023-03-03T01:35:34;2.70;99.90
51035;DHT22;37062;52.546;13.230;2023-03-03T01:38:03;2.70;99.90
51035;DHT22;37062;52.546;13.230;2023-03-03T01:40:32;2.70;99.90
51035;DHT22;37062;52.546;13.230;2023-03-03T01:43:02;2.70;99.90
51035;DHT22;37062;52.546;13.230;2023-03-03T01:45:31;2.80;99.90
51035;DHT22;37062;52.546;13.230;2023-03-03T01:48:12;2.80;99.90
51035;DHT22;37062;52.546;13.230;2023-03-03T01:50:45;2.80;99.90
51035;DHT22;37062;52.546;13.230;2023-03-03T01:53:19;2.90;99.90
51035;DHT22;37062;52.546;13.230;2023-03-03T01:55:49;2.90;99.90
51035;DHT22;37062;52.546;13.230;2023-03-03T01:58:21;3.00;99.90
51035;DHT22;37062;52.546;13.230;2023-03-03T02:00:54;2.90;99.90
51035;DHT22;37062;52.546;13.230;2023-03-03T02:03:26;2.90;99.90
51035;DHT22;37062;52.546;13.230;2023-03-03T02:05:57;2.90;99.90
51035;DHT22;37062;52.546;13.230;2023-03-03T02:08:30;2.80;99.90
51035;DHT22;37062;52.546;13.230;2023-03-03T02:11:02;2.70;99.90
51035;DHT22;37062;52.546;13.230;2023-03-03T02:13:31;2.60;99.90
51035;DHT22;37062;52.546;13.230;2023-03-03T02:16:00;2.40;99.90
51035;DHT22;37062;52.546;13.230;2023-03-03T02:18:29;2.30;99.90
51035;DHT22;37062;52.546;13.230;2023-03-03T02:21:03;2.40;99.90
51035;DHT22;37062;52.546;13.230;2023-03-03T02:23:37;2.50;99.90
51035;DHT22;37062;52.546;13.230;2023-03-03T02:26:09;2.50;99.90
51035;DHT22;37062;52.546;13.230;2023-03-03T02:28:40;2.40;99.90
51035;DHT22;37062;52.546;13.230;2023-03-03T02:31:12;2.30;99.90
51035;DHT22;37062;52.546;13.230;2023-03-03T02:33:44;2.30;99.90
51035;DHT22;37062;52.546;13.230;2023-03-03T02:36:14;2.30;99.90
51035;DHT22;37062;52.546;13.230;2023-03-03T02:38:47;2.30;99.90
51035;DHT22;37062;52.546;13.230;2023-03-03T02:41:28;2.40;99.90
51035;DHT22;37062;52.546;13.230;2023-03-03T02:44:01;2.40;99.90
51035;DHT22;37062;52.546;13.230;2023-03-03T02:46:33;2.40;99.90
51035;DHT22;37062;52.546;13.230;2023-03-03T02:49:03;2.40;99.90
51035;DHT22;37062;52.546;13.230;2023-03-03T02:51:32;2.10;99.90
51035;DHT22;37062;52.546;13.230;2023-03-03T02:54:01;2.10;99.90
51035;DHT22;37062;52.546;13.230;2023-03-03T02:56:33;2.10;99.90
51035;DHT22;37062;52.546;13.230;2023-03-03T02:59:03;2.20;99.90
51035;DHT22;37062;52.546;13.230;2023-03-03T03:01:37;2.20;99.90
51035;DHT22;37062;52.546;13.230;2023-03-03T03:04:12;2.20;99.90
51035;DHT22;37062;52.546;13.230;2023-03-03T03:06:44;2.20;99.90
51035;DHT22;37062;52.546;13.230;2023-03-03T03:09:15;2.30;99.90
51035;DHT22;37062;52.546;13.230;2023-03-03T03:11:46;2.30;99.90
51035;DHT22;37062;52.546;13.230;2023-03-03T03:14:18;2.30;99.90
51035;DHT22;37062;52.546;13.230;2023-03-03T03:16:47;2.30;99.90
51035;DHT22;37062;52.546;13.230;2023-03-03T03:19:15;2.30;99.90
51035;DHT22;37062;52.546;13.230;2023-03-03T03:21:44;2.30;99.90
51035;DHT22;37062;52.546;13.230;2023-03-03T03:24:13;2.30;99.90
51035;DHT22;37062;52.546;13.230;2023-03-03T03:26:47;2.20;99.90
51035;DHT22;37062;52.546;13.230;2023-03-03T03:29:16;2.00;99.90
51035;DHT22;37062;52.546;13.230;2023-03-03T03:31:45;1.90;99.90
51035;DHT22;37062;52.546;13.230;2023-03-03T03:34:14;1.90;99.90
51035;DHT22;37062;52.546;13.230;2023-03-03T03:36:43;1.90;99.90
51035;DHT22;37062;52.546;13.230;2023-03-03T03:39:14;2.00;99.90
51035;DHT22;37062;52.546;13.230;2023-03-03T03:41:47;2.00;99.90
51035;DHT22;37062;52.546;13.230;2023-03-03T03:44:15;2.20;99.90
51035;DHT22;37062;52.546;13.230;2023-03-03T03:46:44;2.30;99.90
51035;DHT22;37062;52.546;13.230;2023-03-03T03:49:12;2.40;99.90
51035;DHT22;37062;52.546;13.230;2023-03-03T03:51:41;2.50;99.90
51035;DHT22;37062;52.546;13.230;2023-03-03T03:54:13;2.50;99.90
51035;DHT22;37062;52.546;13.230;2023-03-03T03:56:42;2.50;99.90
51035;DHT22;37062;52.546;13.230;2023-03-03T03:59:11;2.50;99.90
51035;DHT22;37062;52.546;13.230;2023-03-03T04:01:40;2.60;99.90
51035;DHT22;37062;52.546;13.230;2023-03-03T04:04:08;2.50;99.90
51035;DHT22;37062;52.546;13.230;2023-03-03T04:06:38;2.50;99.90
51035;DHT22;37062;52.546;13.230;2023-03-03T04:09:06;2.40;99.90
51035;DHT22;37062;52.546;13.230;2023-03-03T04:11:34;2.40;99.90
51035;DHT22;37062;52.546;13.230;2023-03-03T04:14:05;2.30;99.90
51035;DHT22;37062;52.546;13.230;2023-03-03T04:16:36;2.30;99.90
51035;DHT22;37062;52.546;13.230;2023-03-03T04:19:04;2.30;99.90
51035;DHT22;37062;52.546;13.230;2023-03-03T04:21:35;2.30;99.90
51035;DHT22;37062;52.546;13.230;2023-03-03T04:24:04;2.30;99.90
51035;DHT22;37062;52.546;13.230;2023-03-03T04:26:33;2.10;99.90
51035;DHT22;37062;52.546;13.230;2023-03-03T04:29:03;2.10;99.90
51035;DHT22;37062;52.546;13.230;2023-03-03T04:31:31;2.00;99.90
51035;DHT22;37062;52.546;13.230;2023-03-03T04:34:02;2.10;99.90
51035;DHT22;37062;52.546;13.230;2023-03-03T04:36:31;2.10;99.90
51035;DHT22;37062;52.546;13.230;2023-03-03T04:38:59;2.20;99.90
51035;DHT22;37062;52.546;13.230;2023-03-03T04:41:28;2.30;99.90
51035;DHT22;37062;52.546;13.230;2023-03-03T04:43:56;2.40;99.90
51035;DHT22;37062;52.546;13.230;2023-03-03T04:46:26;2.50;99.90
51035;DHT22;37062;52.546;13.230;2023-03-03T04:48:55;2.50;99.90
51035;DHT22;37062;52.546;13.230;2023-03-03T04:51:26;2.60;99.90
51035;DHT22;37062;52.546;13.230;2023-03-03T04:53:55;2.60;99.90
51035;DHT22;37062;52.546;13.230;2023-03-03T04:56:24;2.70;99.90
51035;DHT22;37062;52.546;13.230;2023-03-03T04:58:52;2.70;99.90
51035;DHT22;37062;52.546;13.230;2023-03-03T05:01:21;2.70;99.90
51035;DHT22;37062;52.546;13.230;2023-03-03T05:03:49;2.80;99.90
51035;DHT22;37062;52.546;13.230;2023-03-03T05:06:17;2.70;99.90
51035;DHT22;37062;52.546;13.230;2023-03-03T05:08:47;2.70;99.90
51035;DHT22;37062;52.546;13.230;2023-03-03T05:11:15;2.50;99.90
51035;DHT22;37062;52.546;13.230;2023-03-03T05:13:44;2.50;99.90
51035;DHT22;37062;52.546;13.230;2023-03-03T05:16:13;2.40;99.90
51035;DHT22;37062;52.546;13.230;2023-03-03T05:18:41;2.40;99.90
51035;DHT22;37062;52.546;13.230;2023-03-03T05:21:11;2.40;99.90
51035;DHT22;37062;52.546;13.230;2023-03-03T05:23:39;2.40;99.90
51035;DHT22;37062;52.546;13.230;2023-03-03T05:26:09;2.40;99.90
51035;DHT22;37062;52.546;13.230;2023-03-03T05:28:37;2.30;99.90
51035;DHT22;37062;52.546;13.230;2023-03-03T05:31:06;2.30;99.90
51035;DHT22;37062;52.546;13.230;2023-03-03T05:33:34;2.30;99.90
51035;DHT22;37062;52.546;13.230;2023-03-03T05:36:03;2.20;99.90
51035;DHT22;37062;52.546;13.230;2023-03-03T05:38:34;2.10;99.90
51035;DHT22;37062;52.546;13.230;2023-03-03T05:41:02;1.90;99.90
51035;DHT22;37062;52.546;13.230;2023-03-03T05:43:32;1.70;99.90
51035;DHT22;37062;52.546;13.230;2023-03-03T05:46:00;1.70;99.90
51035;DHT22;37062;52.546;13.230;2023-03-03T05:48:29;1.60;99.90
51035;DHT22;37062;52.546;13.230;2023-03-03T05:50:57;1.60;99.90
51035;DHT22;37062;52.546;13.230;2023-03-03T05:53:26;1.70;99.90
51035;DHT22;37062;52.546;13.230;2023-03-03T05:55:55;1.80;99.90
51035;DHT22;37062;52.546;13.230;2023-03-03T05:58:24;1.90;99.90
51035;DHT22;37062;52.546;13.230;2023-03-03T06:00:53;2.00;99.90
51035;DHT22;37062;52.546;13.230;2023-03-03T06:03:22;2.10;99.90
51035;DHT22;37062;52.546;13.230;2023-03-03T06:05:50;2.10;99.90
51035;DHT22;37062;52.546;13.230;2023-03-03T06:08:18;2.00;99.90
51035;DHT22;37062;52.546;13.230;2023-03-03T06:10:47;1.90;99.90
51035;DHT22;37062;52.546;13.230;2023-03-03T06:13:19;1.80;99.90
51035;DHT22;37062;52.546;13.230;2023-03-03T06:15:50;1.80;99.90
51035;DHT22;37062;52.546;13.230;2023-03-03T06:18:20;1.90;99.90
51035;DHT22;37062;52.546;13.230;2023-03-03T06:20:51;1.80;99.90
51035;DHT22;37062;52.546;13.230;2023-03-03T06:23:21;1.80;99.90
51035;DHT22;37062;52.546;13.230;2023-03-03T06:25:56;1.50;99.90
51035;DHT22;37062;52.546;13.230;2023-03-03T06:28:24;1.50;99.90
51035;DHT22;37062;52.546;13.230;2023-03-03T06:30:53;1.60;99.90
51035;DHT22;37062;52.546;13.230;2023-03-03T06:33:23;1.80;99.90
51035;DHT22;37062;52.546;13.230;2023-03-03T06:35:52;2.00;99.90
51035;DHT22;37062;52.546;13.230;2023-03-03T06:38:23;2.10;99.90
51035;DHT22;37062;52.546;13.230;2023-03-03T06:40:51;2.20;99.90
51035;DHT22;37062;52.546;13.230;2023-03-03T06:43:20;2.00;99.90
51035;DHT22;37062;52.546;13.230;2023-03-03T06:45:48;2.00;99.90
51035;DHT22;37062;52.546;13.230;2023-03-03T06:48:16;1.90;99.90
51035;DHT22;37062;52.546;13.230;2023-03-03T06:50:46;1.90;99.90
51035;DHT22;37062;52.546;13.230;2023-03-03T06:53:19;1.90;99.90
51035;DHT22;37062;52.546;13.230;2023-03-03T06:55:55;1.90;99.90
51035;DHT22;37062;52.546;13.230;2023-03-03T06:58:26;2.00;99.90
51035;DHT22;37062;52.546;13.230;2023-03-03T07:00:59;1.90;99.90
51035;DHT22;37062;52.546;13.230;2023-03-03T07:03:32;1.70;99.90
51035;DHT22;37062;52.546;13.230;2023-03-03T07:06:12;1.70;99.90
51035;DHT22;37062;52.546;13.230;2023-03-03T07:08:41;1.80;99.90
51035;DHT22;37062;52.546;13.230;2023-03-03T07:11:15;1.80;99.90
51035;DHT22;37062;52.546;13.230;2023-03-03T07:13:47;1.90;99.90
51035;DHT22;37062;52.546;13.230;2023-03-03T07:16:17;1.90;99.90
51035;DHT22;37062;52.546;13.230;2023-03-03T07:18:49;1.80;99.90
51035;DHT22;37062;52.546;13.230;2023-03-03T07:21:29;1.80;99.90
51035;DHT22;37062;52.546;13.230;2023-03-03T07:24:21;1.70;99.90
51035;DHT22;37062;52.546;13.230;2023-03-03T07:26:52;1.70;99.90
51035;DHT22;37062;52.546;13.230;2023-03-03T07:29:24;1.90;99.90
51035;DHT22;37062;52.546;13.230;2023-03-03T07:31:55;2.00;99.90
51035;DHT22;37062;52.546;13.230;2023-03-03T07:34:28;2.00;99.90
51035;DHT22;37062;52.546;13.230;2023-03-03T07:37:01;2.10;99.90
51035;DHT22;37062;52.546;13.230;2023-03-03T07:39:38;2.10;99.90
51035;DHT22;37062;52.546;13.230;2023-03-03T07:42:19;2.00;99.90
51035;DHT22;37062;52.546;13.230;2023-03-03T07:47:36;2.10;99.90
51035;DHT22;37062;52.546;13.230;2023-03-03T07:50:13;2.20;99.90
51035;DHT22;37062;52.546;13.230;2023-03-03T07:52:50;2.30;99.90
51035;DHT22;37062;52.546;13.230;2023-03-03T07:55:29;2.40;99.90
51035;DHT22;37062;52.546;13.230;2023-03-03T07:58:16;2.40;99.90
51035;DHT22;37062;52.546;13.230;2023-03-03T08:03:55;2.50;99.90
51035;DHT22;37062;52.546;13.230;2023-03-03T08:06:34;2.50;99.90
51035;DHT22;37062;52.546;13.230;2023-03-03T08:09:34;2.60;99.90
51035;DHT22;37062;52.546;13.230;2023-03-03T08:12:35;2.70;99.90
51035;DHT22;37062;52.546;13.230;2023-03-03T08:15:20;2.70;99.90
51035;DHT22;37062;52.546;13.230;2023-03-03T08:17:51;2.70;99.90
51035;DHT22;37062;52.546;13.230;2023-03-03T08:20:43;2.70;99.90
51035;DHT22;37062;52.546;13.230;2023-03-03T08:23:13;2.70;99.90
51035;DHT22;37062;52.546;13.230;2023-03-03T08:25:43;2.60;99.90
51035;DHT22;37062;52.546;13.230;2023-03-03T08:28:12;2.70;99.90
51035;DHT22;37062;52.546;13.230;2023-03-03T08:30:41;2.90;99.90
51035;DHT22;37062;52.546;13.230;2023-03-03T08:33:10;3.10;99.90
51035;DHT22;37062;52.546;13.230;2023-03-03T08:35:39;3.30;99.90
51035;DHT22;37062;52.546;13.230;2023-03-03T08:38:08;3.40;99.90
51035;DHT22;37062;52.546;13.230;2023-03-03T08:40:36;3.60;99.90
51035;DHT22;37062;52.546;13.230;2023-03-03T08:43:06;3.70;99.90
51035;DHT22;37062;52.546;13.230;2023-03-03T08:45:35;3.80;99.90
51035;DHT22;37062;52.546;13.230;2023-03-03T08:48:03;3.80;99.90
51035;DHT22;37062;52.546;13.230;2023-03-03T08:50:32;3.90;99.90
51035;DHT22;37062;52.546;13.230;2023-03-03T08:53:04;3.90;99.90
51035;DHT22;37062;52.546;13.230;2023-03-03T08:55:33;3.90;99.90
51035;DHT22;37062;52.546;13.230;2023-03-03T08:58:01;3.80;99.90
51035;DHT22;37062;52.546;13.230;2023-03-03T09:00:31;3.80;99.90
51035;DHT22;37062;52.546;13.230;2023-03-03T09:03:00;3.80;99.90
51035;DHT22;37062;52.546;13.230;2023-03-03T09:05:29;3.80;99.90
51035;DHT22;37062;52.546;13.230;2023-03-03T09:07:57;3.90;99.90
51035;DHT22;37062;52.546;13.230;2023-03-03T09:10:27;3.90;99.90
51035;DHT22;37062;52.546;13.230;2023-03-03T09:12:59;4.00;99.90
51035;DHT22;37062;52.546;13.230;2023-03-03T09:15:31;4.10;99.90
51035;DHT22;37062;52.546;13.230;2023-03-03T09:18:12;4.30;99.90
51035;DHT22;37062;52.546;13.230;2023-03-03T09:20:42;4.50;99.90
51035;DHT22;37062;52.546;13.230;2023-03-03T09:23:37;4.50;99.90
51035;DHT22;37062;52.546;13.230;2023-03-03T09:26:25;4.50;99.90
51035;DHT22;37062;52.546;13.230;2023-03-03T09:28:58;4.60;99.90
51035;DHT22;37062;52.546;13.230;2023-03-03T09:31:37;4.60;99.90
51035;DHT22;37062;52.546;13.230;2023-03-03T09:34:19;4.60;99.90
51035;DHT22;37062;52.546;13.230;2023-03-03T09:36:48;4.60;99.90
51035;DHT22;37062;52.546;13.230;2023-03-03T09:39:18;4.60;99.90
51035;DHT22;37062;52.546;13.230;2023-03-03T09:45:24;4.70;99.90
51035;DHT22;37062;52.546;13.230;2023-03-03T09:48:27;4.90;99.90
51035;DHT22;37062;52.546;13.230;2023-03-03T09:51:30;4.90;99.90
51035;DHT22;37062;52.546;13.230;2023-03-03T09:54:16;5.00;99.90
51035;DHT22;37062;52.546;13.230;2023-03-03T09:56:52;5.10;99.90
51035;DHT22;37062;52.546;13.230;2023-03-03T09:59:36;5.10;99.90
51035;DHT22;37062;52.546;13.230;2023-03-03T10:02:22;5.10;99.90
51035;DHT22;37062;52.546;13.230;2023-03-03T10:05:13;5.10;99.90
51035;DHT22;37062;52.546;13.230;2023-03-03T10:07:54;5.20;99.90
51035;DHT22;37062;52.546;13.230;2023-03-03T10:10:47;5.10;99.90
51035;DHT22;37062;52.546;13.230;2023-03-03T10:13:39;5.20;99.90
51035;DHT22;37062;52.546;13.230;2023-03-03T10:16:29;5.20;99.90
51035;DHT22;37062;52.546;13.230;2023-03-03T10:19:23;5.30;99.90
51035;DHT22;37062;52.546;13.230;2023-03-03T10:22:03;5.30;99.90
51035;DHT22;37062;52.546;13.230;2023-03-03T10:24:38;5.40;99.90
51035;DHT22;37062;52.546;13.230;2023-03-03T10:27:21;5.50;99.90
51035;DHT22;37062;52.546;13.230;2023-03-03T10:30:00;5.60;99.90
51035;DHT22;37062;52.546;13.230;2023-03-03T10:32:41;5.70;99.90
51035;DHT22;37062;52.546;13.230;2023-03-03T10:35:23;5.70;99.90
51035;DHT22;37062;52.546;13.230;2023-03-03T10:38:11;5.70;99.90
51035;DHT22;37062;52.546;13.230;2023-03-03T10:40:47;5.80;99.90
51035;DHT22;37062;52.546;13.230;2023-03-03T10:43:41;5.80;99.90
51035;DHT22;37062;52.546;13.230;2023-03-03T10:46:33;5.70;99.90
51035;DHT22;37062;52.546;13.230;2023-03-03T10:49:17;5.70;99.90
51035;DHT22;37062;52.546;13.230;2023-03-03T10:52:12;5.70;99.90
51035;DHT22;37062;52.546;13.230;2023-03-03T10:55:07;5.90;99.90
51035;DHT22;37062;52.546;13.230;2023-03-03T10:57:41;5.90;99.90
51035;DHT22;37062;52.546;13.230;2023-03-03T11:00:19;5.90;99.90
51035;DHT22;37062;52.546;13.230;2023-03-03T11:05:55;5.90;99.90
51035;DHT22;37062;52.546;13.230;2023-03-03T11:08:29;5.90;99.90
51035;DHT22;37062;52.546;13.230;2023-03-03T11:11:11;5.90;99.90
51035;DHT22;37062;52.546;13.230;2023-03-03T11:13:45;6.00;99.90
51035;DHT22;37062;52.546;13.230;2023-03-03T11:19:17;6.10;99.90
51035;DHT22;37062;52.546;13.230;2023-03-03T11:21:56;6.20;99.90
51035;DHT22;37062;52.546;13.230;2023-03-03T11:24:33;6.10;99.90
51035;DHT22;37062;52.546;13.230;2023-03-03T11:27:17;6.10;99.90
51035;DHT22;37062;52.546;13.230;2023-03-03T11:30:25;6.20;99.90
51035;DHT22;37062;52.546;13.230;2023-03-03T11:33:01;6.30;99.90
51035;DHT22;37062;52.546;13.230;2023-03-03T11:35:37;6.30;99.90
51035;DHT22;37062;52.546;13.230;2023-03-03T11:38:31;6.40;99.90
51035;DHT22;37062;52.546;13.230;2023-03-03T11:41:06;6.40;99.90
51035;DHT22;37062;52.546;13.230;2023-03-03T11:43:39;6.40;99.90
51035;DHT22;37062;52.546;13.230;2023-03-03T11:46:11;6.50;99.90
51035;DHT22;37062;52.546;13.230;2023-03-03T11:48:45;6.50;99.90
51035;DHT22;37062;52.546;13.230;2023-03-03T11:51:21;6.60;99.90
51035;DHT22;37062;52.546;13.230;2023-03-03T11:53:58;6.60;99.90
51035;DHT22;37062;52.546;13.230;2023-03-03T11:56:33;6.40;99.90
51035;DHT22;37062;52.546;13.230;2023-03-03T11:59:18;6.00;99.90
51035;DHT22;37062;52.546;13.230;2023-03-03T12:01:52;5.90;99.90
51035;DHT22;37062;52.546;13.230;2023-03-03T12:04:26;5.80;99.90
51035;DHT22;37062;52.546;13.230;2023-03-03T12:07:08;5.90;99.90
51035;DHT22;37062;52.546;13.230;2023-03-03T12:09:54;6.00;99.90
51035;DHT22;37062;52.546;13.230;2023-03-03T12:12:28;6.20;99.90
51035;DHT22;37062;52.546;13.230;2023-03-03T12:15:07;6.40;99.90
51035;DHT22;37062;52.546;13.230;2023-03-03T12:17:57;6.50;99.90
51035;DHT22;37062;52.546;13.230;2023-03-03T12:20:31;6.70;99.90
51035;DHT22;37062;52.546;13.230;2023-03-03T12:23:10;6.70;99.90
51035;DHT22;37062;52.546;13.230;2023-03-03T12:25:42;6.80;99.90
51035;DHT22;37062;52.546;13.230;2023-03-03T12:28:16;6.90;99.90
51035;DHT22;37062;52.546;13.230;2023-03-03T12:31:04;7.00;99.90
51035;DHT22;37062;52.546;13.230;2023-03-03T12:33:51;7.10;99.90
51035;DHT22;37062;52.546;13.230;2023-03-03T12:36:43;7.00;99.90
51035;DHT22;37062;52.546;13.230;2023-03-03T12:39:29;7.10;99.90
51035;DHT22;37062;52.546;13.230;2023-03-03T12:42:09;7.10;99.90
51035;DHT22;37062;52.546;13.230;2023-03-03T12:44:44;7.10;99.90
51035;DHT22;37062;52.546;13.230;2023-03-03T12:47:24;6.80;99.90
51035;DHT22;37062;52.546;13.230;2023-03-03T12:50:16;6.70;99.90
51035;DHT22;37062;52.546;13.230;2023-03-03T12:52:55;6.60;99.90
51035;DHT22;37062;52.546;13.230;2023-03-03T12:55:46;6.60;99.90
51035;DHT22;37062;52.546;13.230;2023-03-03T12:58:24;6.50;99.90
51035;DHT22;37062;52.546;13.230;2023-03-03T13:01:01;6.50;99.90
51035;DHT22;37062;52.546;13.230;2023-03-03T13:03:40;6.50;99.90
51035;DHT22;37062;52.546;13.230;2023-03-03T13:06:27;6.60;99.90
51035;DHT22;37062;52.546;13.230;2023-03-03T13:09:07;6.70;99.90
51035;DHT22;37062;52.546;13.230;2023-03-03T13:11:53;6.90;99.90
51035;DHT22;37062;52.546;13.230;2023-03-03T13:14:30;6.90;99.90
51035;DHT22;37062;52.546;13.230;2023-03-03T13:17:12;6.80;99.90
51035;DHT22;37062;52.546;13.230;2023-03-03T13:19:45;6.90;99.90
51035;DHT22;37062;52.546;13.230;2023-03-03T13:22:33;7.00;99.90
51035;DHT22;37062;52.546;13.230;2023-03-03T13:25:08;7.10;99.90
51035;DHT22;37062;52.546;13.230;2023-03-03T13:27:40;7.20;99.90
51035;DHT22;37062;52.546;13.230;2023-03-03T13:30:16;7.10;99.90
51035;DHT22;37062;52.546;13.230;2023-03-03T13:32:53;7.10;99.90
51035;DHT22;37062;52.546;13.230;2023-03-03T13:35:32;7.10;99.90
51035;DHT22;37062;52.546;13.230;2023-03-03T13:38:05;7.10;99.90
51035;DHT22;37062;52.546;13.230;2023-03-03T13:40:41;7.10;99.90
51035;DHT22;37062;52.546;13.230;2023-03-03T13:43:16;7.20;99.90
51035;DHT22;37062;52.546;13.230;2023-03-03T13:45:53;7.20;99.90
51035;DHT22;37062;52.546;13.230;2023-03-03T13:48:34;7.30;99.90
51035;DHT22;37062;52.546;13.230;2023-03-03T13:51:17;7.40;99.90
51035;DHT22;37062;52.546;13.230;2023-03-03T13:53:53;7.40;99.90
51035;DHT22;37062;52.546;13.230;2023-03-03T13:56:41;7.50;99.90
51035;DHT22;37062;52.546;13.230;2023-03-03T13:59:18;7.50;99.90
51035;DHT22;37062;52.546;13.230;2023-03-03T14:01:54;7.60;99.90
51035;DHT22;37062;52.546;13.230;2023-03-03T14:04:44;7.60;99.90
51035;DHT22;37062;52.546;13.230;2023-03-03T14:07:23;7.60;99.90
51035;DHT22;37062;52.546;13.230;2023-03-03T14:10:02;7.60;99.90
51035;DHT22;37062;52.546;13.230;2023-03-03T14:12:39;7.70;99.90
51035;DHT22;37062;52.546;13.230;2023-03-03T14:15:17;7.70;99.90
51035;DHT22;37062;52.546;13.230;2023-03-03T14:17:58;7.70;99.90
51035;DHT22;37062;52.546;13.230;2023-03-03T14:20:31;7.80;99.90
51035;DHT22;37062;52.546;13.230;2023-03-03T14:23:07;7.80;99.90
51035;DHT22;37062;52.546;13.230;2023-03-03T14:25:51;7.80;99.90
51035;DHT22;37062;52.546;13.230;2023-03-03T14:28:21;7.80;99.90
51035;DHT22;37062;52.546;13.230;2023-03-03T14:30:53;7.80;99.90
51035;DHT22;37062;52.546;13.230;2023-03-03T14:33:26;7.80;99.90
51035;DHT22;37062;52.546;13.230;2023-03-03T14:36:10;7.80;99.90
51035;DHT22;37062;52.546;13.230;2023-03-03T14:38:44;7.90;99.90
51035;DHT22;37062;52.546;13.230;2023-03-03T14:41:19;7.90;99.90
51035;DHT22;37062;52.546;13.230;2023-03-03T14:43:59;8.00;99.90
51035;DHT22;37062;52.546;13.230;2023-03-03T14:46:36;8.00;99.90
51035;DHT22;37062;52.546;13.230;2023-03-03T14:49:13;8.00;99.90
51035;DHT22;37062;52.546;13.230;2023-03-03T14:51:43;8.00;99.90
51035;DHT22;37062;52.546;13.230;2023-03-03T14:54:20;8.00;99.90
51035;DHT22;37062;52.546;13.230;2023-03-03T14:57:03;8.00;99.90
51035;DHT22;37062;52.546;13.230;2023-03-03T14:59:33;7.90;99.90
51035;DHT22;37062;52.546;13.230;2023-03-03T15:02:26;8.00;99.90
51035;DHT22;37062;52.546;13.230;2023-03-03T15:05:20;8.00;99.90
51035;DHT22;37062;52.546;13.230;2023-03-03T15:07:52;8.10;99.90
51035;DHT22;37062;52.546;13.230;2023-03-03T15:10:33;8.10;99.90
51035;DHT22;37062;52.546;13.230;2023-03-03T15:16:15;8.20;99.90
51035;DHT22;37062;52.546;13.230;2023-03-03T15:19:01;8.10;99.90
51035;DHT22;37062;52.546;13.230;2023-03-03T15:21:33;8.10;99.90
51035;DHT22;37062;52.546;13.230;2023-03-03T15:24:07;8.10;99.90
51035;DHT22;37062;52.546;13.230;2023-03-03T15:26:46;8.20;99.90
51035;DHT22;37062;52.546;13.230;2023-03-03T15:29:22;8.20;99.90
51035;DHT22;37062;52.546;13.230;2023-03-03T15:31:56;8.20;99.90
51035;DHT22;37062;52.546;13.230;2023-03-03T15:34:34;8.20;99.90
51035;DHT22;37062;52.546;13.230;2023-03-03T15:37:24;8.20;99.90
51035;DHT22;37062;52.546;13.230;2023-03-03T15:40:00;8.20;99.90
51035;DHT22;37062;52.546;13.230;2023-03-03T15:42:39;8.20;99.90
51035;DHT22;37062;52.546;13.230;2023-03-03T15:45:17;8.20;99.90
51035;DHT22;37062;52.546;13.230;2023-03-03T15:47:59;8.20;99.90
51035;DHT22;37062;52.546;13.230;2023-03-03T15:50:37;8.20;99.90
51035;DHT22;37062;52.546;13.230;2023-03-03T15:53:22;8.20;99.90
51035;DHT22;37062;52.546;13.230;2023-03-03T15:56:02;8.20;99.90
51035;DHT22;37062;52.546;13.230;2023-03-03T15:58:52;8.20;99.90
51035;DHT22;37062;52.546;13.230;2023-03-03T16:01:28;8.20;99.90
51035;DHT22;37062;52.546;13.230;2023-03-03T16:04:03;8.20;99.90
51035;DHT22;37062;52.546;13.230;2023-03-03T16:06:41;8.20;99.90
51035;DHT22;37062;52.546;13.230;2023-03-03T16:09:23;8.10;99.90
51035;DHT22;37062;52.546;13.230;2023-03-03T16:12:20;8.20;99.90
51035;DHT22;37062;52.546;13.230;2023-03-03T16:15:10;8.20;99.90
51035;DHT22;37062;52.546;13.230;2023-03-03T16:17:47;8.20;99.90
51035;DHT22;37062;52.546;13.230;2023-03-03T16:20:22;8.20;99.90
51035;DHT22;37062;52.546;13.230;2023-03-03T16:23:06;8.20;99.90
51035;DHT22;37062;52.546;13.230;2023-03-03T16:25:51;8.10;99.90
51035;DHT22;37062;52.546;13.230;2023-03-03T16:28:26;8.10;99.90
51035;DHT22;37062;52.546;13.230;2023-03-03T16:31:05;8.10;99.90
51035;DHT22;37062;52.546;13.230;2023-03-03T16:33:38;8.10;99.90
51035;DHT22;37062;52.546;13.230;2023-03-03T16:36:22;8.00;99.90
51035;DHT22;37062;52.546;13.230;2023-03-03T16:39:01;7.90;99.90